createdAt,value
2023-01-03T00:06:17.654Z,18.50
2023-01-03T00:11:16.968Z,18.50
2023-01-03T00:16:19.575Z,18.70
2023-01-03T00:28:44.176Z,19.10
2023-01-03T00:31:13.653Z,18.50
2023-01-03T00:33:42.246Z,18.70
2023-01-03T00:36:11.686Z,18.30
2023-01-03T00:38:40.074Z,18.60
2023-01-03T00:41:09.876Z,18.30
2023-01-03T00:43:39.160Z,18.20
2023-01-03T00:46:09.624Z,18.30
2023-01-03T00:51:08.287Z,17.90
2023-01-03T00:53:36.819Z,18.30
2023-01-03T00:56:06.262Z,18.20
2023-01-03T00:58:35.579Z,17.60
2023-01-03T01:01:08.639Z,18.10
2023-01-03T01:03:38.340Z,18.50
2023-01-03T01:13:39.812Z,17.80
2023-01-03T01:16:12.195Z,18.60
2023-01-03T01:18:41.567Z,18.10
2023-01-03T01:21:13.355Z,18.30
2023-01-03T01:23:43.225Z,18.10
2023-01-03T01:26:14.261Z,18.10
2023-01-03T01:28:43.288Z,18.10
2023-01-03T01:31:16.517Z,18.30
2023-01-03T01:36:17.760Z,17.70
2023-01-03T01:38:46.963Z,18.40
2023-01-03T01:41:38.028Z,18.20
2023-01-03T01:44:24.787Z,18.30
2023-01-03T01:46:54.863Z,18.30
2023-01-03T01:49:24.207Z,18.30
2023-01-03T01:51:53.002Z,18.20
2023-01-03T01:56:54.362Z,18.00
2023-01-03T01:59:23.108Z,18.20
2023-01-03T02:01:52.867Z,17.80
2023-01-03T02:04:28.165Z,17.70
2023-01-03T02:06:58.024Z,18.30
2023-01-03T02:09:26.193Z,18.00
2023-01-03T02:12:12.363Z,18.00
2023-01-03T02:14:56.190Z,18.20
2023-01-03T02:17:34.656Z,17.90
2023-01-03T02:20:15.081Z,18.00
2023-01-03T02:23:12.728Z,18.00
2023-01-03T02:26:08.576Z,18.10
2023-01-03T02:29:05.751Z,18.30
2023-01-03T02:31:43.241Z,18.30
2023-01-03T02:34:21.388Z,18.30
2023-01-03T02:36:59.467Z,18.50
2023-01-03T02:39:34.134Z,18.20
2023-01-03T02:42:27.473Z,17.90
2023-01-03T02:45:05.243Z,17.80
2023-01-03T02:47:41.648Z,18.20
2023-01-03T02:50:14.335Z,17.80
2023-01-03T02:52:45.521Z,17.00
2023-01-03T02:55:18.788Z,17.70
2023-01-03T02:57:51.335Z,18.00
2023-01-03T03:00:22.861Z,17.80
2023-01-03T03:02:55.939Z,17.70
2023-01-03T03:10:41.986Z,17.80
2023-01-03T03:13:19.413Z,18.20
2023-01-03T03:15:53.396Z,18.10
2023-01-03T03:18:26.857Z,17.00
2023-01-03T03:21:16.691Z,17.70
2023-01-03T03:24:05.705Z,17.70
2023-01-03T03:26:40.157Z,17.70
2023-01-03T03:31:42.709Z,18.00
2023-01-03T03:34:17.868Z,17.90
2023-01-03T03:36:52.414Z,17.20
2023-01-03T03:42:36.938Z,17.70
2023-01-03T03:45:13.947Z,18.20
2023-01-03T03:47:48.650Z,17.00
2023-01-03T03:50:23.992Z,17.00
2023-01-03T03:52:56.215Z,17.80
2023-01-03T03:55:29.275Z,17.70
2023-01-03T03:58:01.991Z,17.90
2023-01-03T04:00:34.785Z,17.90
2023-01-03T04:03:05.280Z,17.90
2023-01-03T04:05:38.615Z,17.80
2023-01-03T04:08:07.247Z,17.80
2023-01-03T04:23:01.477Z,17.60
2023-01-03T04:25:29.613Z,17.70
2023-01-03T04:40:21.130Z,18.00
2023-01-03T04:50:33.691Z,17.70
2023-01-03T04:53:01.839Z,17.70
2023-01-03T04:55:31.398Z,17.60
2023-01-03T04:57:59.601Z,18.40
2023-01-03T05:12:59.989Z,18.30
2023-01-03T05:23:31.327Z,18.20
2023-01-03T05:28:29.841Z,18.00
2023-01-03T05:30:59.391Z,18.40
2023-01-03T05:33:27.589Z,18.90
2023-01-03T05:45:53.273Z,18.20
2023-01-03T05:48:22.746Z,18.30
2023-01-03T05:50:51.075Z,18.40
2023-01-03T06:03:15.166Z,18.30
2023-01-03T06:18:34.763Z,18.40
2023-01-03T06:21:04.619Z,18.50
2023-01-03T06:23:33.093Z,18.30
2023-01-03T06:26:04.742Z,18.60
2023-01-03T06:31:01.370Z,18.50
2023-01-03T06:51:47.819Z,18.30
2023-01-03T06:54:21.950Z,18.00
2023-01-03T07:06:47.005Z,18.20
2023-01-03T07:16:42.923Z,17.70
2023-01-03T07:19:14.693Z,17.80
2023-01-03T07:24:14.550Z,17.40
2023-01-03T07:29:12.159Z,17.90
2023-01-03T07:31:41.637Z,17.10
2023-01-03T07:34:10.593Z,17.30
2023-01-03T07:41:54.047Z,18.10
2023-01-03T07:56:45.733Z,18.10
2023-01-03T08:27:12.908Z,18.20
2023-01-03T08:34:41.945Z,18.40
2023-01-03T08:37:12.331Z,18.60
2023-01-03T08:39:44.603Z,18.50
2023-01-03T08:42:16.552Z,18.80
2023-01-03T08:47:14.902Z,18.90
2023-01-03T08:49:43.803Z,19.00
2023-01-03T08:59:39.808Z,19.10
2023-01-03T09:14:31.544Z,18.90
2023-01-03T09:17:01.045Z,18.70
2023-01-03T09:19:29.197Z,17.20
2023-01-03T09:29:23.598Z,19.10
2023-01-03T09:31:52.005Z,19.30
2023-01-03T09:34:21.944Z,19.30
2023-01-03T09:36:50.078Z,20.00
2023-01-03T09:42:06.655Z,20.00
2023-01-03T09:44:34.987Z,20.50
2023-01-03T09:47:04.481Z,20.40
2023-01-03T09:49:36.850Z,20.90
2023-01-03T09:52:22.765Z,20.00
2023-01-03T09:55:08.326Z,20.50
2023-01-03T09:57:55.354Z,21.60
2023-01-03T10:00:47.725Z,20.70
2023-01-03T10:03:51.063Z,21.90
2023-01-03T10:06:34.273Z,21.90
2023-01-03T10:09:14.254Z,22.70
2023-01-03T10:11:48.424Z,22.50
2023-01-03T10:14:32.605Z,22.60
2023-01-03T10:17:07.361Z,21.70
2023-01-03T10:20:11.109Z,22.00
2023-01-03T10:22:41.423Z,21.90
2023-01-03T10:27:47.570Z,21.70
2023-01-03T10:30:18.647Z,21.40
2023-01-03T10:33:24.448Z,21.60
2023-01-03T10:38:23.367Z,21.60
2023-01-03T10:40:54.216Z,20.80
2023-01-03T10:43:31.680Z,22.30
2023-01-03T10:46:04.653Z,21.90
2023-01-03T10:49:00.297Z,21.90
2023-01-03T10:51:34.518Z,21.80
2023-01-03T10:54:14.436Z,21.50
2023-01-03T10:56:42.621Z,21.60
2023-01-03T10:59:17.309Z,22.00
2023-01-03T11:02:00.052Z,22.10
2023-01-03T11:07:05.104Z,21.80
2023-01-03T11:09:50.595Z,21.10
2023-01-03T11:12:28.276Z,21.50
2023-01-03T11:14:58.289Z,21.50
2023-01-03T11:17:28.457Z,22.20
2023-01-03T11:19:57.724Z,21.80
2023-01-03T11:22:38.106Z,21.70
2023-01-03T11:25:21.632Z,21.50
2023-01-03T11:28:30.296Z,21.80
2023-01-03T11:31:06.054Z,21.10
2023-01-03T11:33:48.511Z,21.60
2023-01-03T11:36:31.351Z,21.40
2023-01-03T11:39:15.406Z,21.80
2023-01-03T11:42:05.665Z,21.70
2023-01-03T11:45:03.497Z,23.10
2023-01-03T11:47:38.222Z,23.50
2023-01-03T11:50:19.796Z,24.20
2023-01-03T11:52:54.563Z,25.10
2023-01-03T11:55:47.261Z,25.20
2023-01-03T11:58:52.596Z,25.70
2023-01-03T12:01:38.755Z,25.90
2023-01-03T12:04:27.750Z,26.00
2023-01-03T12:07:47.184Z,26.30
2023-01-03T12:10:12.047Z,26.40
2023-01-03T12:12:59.327Z,27.30
2023-01-03T12:15:37.841Z,27.20
2023-01-03T12:18:17.681Z,26.60
2023-01-03T12:20:49.741Z,26.90
2023-01-03T12:23:30.661Z,26.70
2023-01-03T12:26:02.239Z,25.50
2023-01-03T12:28:36.348Z,26.50
2023-01-03T12:31:13.033Z,25.70
2023-01-03T12:33:46.446Z,26.20
2023-01-03T12:36:25.715Z,25.50
2023-01-03T12:39:04.257Z,24.80
2023-01-03T12:41:39.547Z,24.70
2023-01-03T12:44:16.577Z,24.60
2023-01-03T12:46:50.398Z,24.20
2023-01-03T12:49:25.445Z,24.10
2023-01-03T12:51:54.036Z,23.60
2023-01-03T12:54:32.584Z,23.50
2023-01-03T12:57:32.921Z,23.50
2023-01-03T13:00:23.821Z,23.20
2023-01-03T13:02:58.725Z,23.00
2023-01-03T13:05:38.959Z,23.20
2023-01-03T13:08:13.341Z,22.90
2023-01-03T13:10:48.392Z,23.10
2023-01-03T13:13:19.200Z,23.50
2023-01-03T13:15:48.706Z,22.80
2023-01-03T13:18:34.114Z,23.30
2023-01-03T13:21:02.276Z,23.00
2023-01-03T13:23:36.265Z,23.10
2023-01-03T13:26:25.938Z,23.10
2023-01-03T13:29:14.961Z,23.10
2023-01-03T13:31:43.230Z,23.70
2023-01-03T13:34:31.087Z,23.40
2023-01-03T13:37:17.855Z,23.30
2023-01-03T13:40:02.735Z,23.20
2023-01-03T13:42:36.298Z,23.20
2023-01-03T13:45:37.764Z,23.40
2023-01-03T13:48:16.485Z,23.10
2023-01-03T13:51:30.345Z,23.70
2023-01-03T13:54:04.110Z,23.10
2023-01-03T13:56:53.708Z,22.80
2023-01-03T13:59:32.485Z,23.40
2023-01-03T14:02:31.581Z,22.60
2023-01-03T14:05:21.904Z,22.90
2023-01-03T14:08:17.283Z,22.70
2023-01-03T14:11:12.580Z,22.70
2023-01-03T14:13:44.727Z,22.70
2023-01-03T14:16:24.752Z,22.80
2023-01-03T14:19:08.054Z,22.40
2023-01-03T14:21:43.305Z,22.30
2023-01-03T14:24:21.956Z,22.30
2023-01-03T14:26:50.295Z,22.20
2023-01-03T14:29:21.969Z,21.80
2023-01-03T14:31:53.541Z,22.00
2023-01-03T14:34:35.455Z,22.10
2023-01-03T14:37:06.716Z,21.60
2023-01-03T14:42:05.134Z,21.70
2023-01-03T14:44:33.620Z,22.00
2023-01-03T14:47:05.050Z,22.40
2023-01-03T14:49:41.450Z,21.80
2023-01-03T14:52:15.278Z,21.80
2023-01-03T14:54:48.359Z,21.80
2023-01-03T14:57:20.528Z,21.80
2023-01-03T14:59:49.959Z,21.90
2023-01-03T15:02:20.021Z,21.90
2023-01-03T15:04:52.725Z,21.20
2023-01-03T15:07:33.541Z,21.70
2023-01-03T15:10:18.774Z,21.60
2023-01-03T15:12:50.864Z,22.10
2023-01-03T15:15:24.580Z,21.70
2023-01-03T15:17:56.420Z,21.50
2023-01-03T15:20:32.049Z,22.10
2023-01-03T15:23:00.266Z,21.70
2023-01-03T15:25:34.707Z,21.50
2023-01-03T15:28:24.945Z,21.10
2023-01-03T15:30:54.011Z,21.70
2023-01-03T15:33:33.323Z,21.30
2023-01-03T15:36:06.248Z,21.30
2023-01-03T15:38:37.762Z,21.30
2023-01-03T15:41:17.485Z,21.30
2023-01-03T15:43:44.622Z,21.00
2023-01-03T15:46:16.052Z,21.20
2023-01-03T15:48:50.364Z,21.10
2023-01-03T15:51:18.728Z,21.20
2023-01-03T15:53:47.078Z,21.10
2023-01-03T15:56:21.054Z,21.10
2023-01-03T15:58:50.675Z,21.10
2023-01-03T16:01:19.815Z,21.30
2023-01-03T16:03:49.619Z,20.50
2023-01-03T16:06:17.620Z,20.60
2023-01-03T16:08:46.529Z,20.70
2023-01-03T16:11:19.873Z,21.20
2023-01-03T16:16:26.557Z,20.90
2023-01-03T16:18:56.988Z,20.60
2023-01-03T16:21:25.913Z,20.90
2023-01-03T16:23:54.374Z,20.80
2023-01-03T16:28:52.305Z,20.90
2023-01-03T16:31:24.394Z,21.10
2023-01-03T16:33:53.038Z,20.70
2023-01-03T16:36:30.530Z,20.70
2023-01-03T16:38:59.062Z,21.00
2023-01-03T16:41:27.495Z,20.60
2023-01-03T16:43:57.016Z,20.70
2023-01-03T16:46:27.582Z,21.00
2023-01-03T16:48:57.977Z,21.20
2023-01-03T16:51:28.489Z,20.80
2023-01-03T16:53:58.161Z,19.10
2023-01-03T16:56:26.282Z,20.50
2023-01-03T16:58:56.133Z,20.80
2023-01-03T17:01:24.498Z,20.40
2023-01-03T17:03:53.047Z,21.00
2023-01-03T17:06:37.089Z,20.50
2023-01-03T17:09:10.066Z,20.80
2023-01-03T17:11:38.281Z,20.40
2023-01-03T17:14:08.206Z,20.70
2023-01-03T17:16:36.182Z,20.90
2023-01-03T17:19:04.296Z,20.80
2023-01-03T17:21:34.919Z,20.30
2023-01-03T17:24:06.993Z,20.70
2023-01-03T17:26:36.840Z,21.10
2023-01-03T17:29:08.228Z,20.70
2023-01-03T17:31:36.404Z,20.50
2023-01-03T17:34:20.172Z,20.50
2023-01-03T17:36:49.011Z,20.50
2023-01-03T17:39:17.685Z,20.40
2023-01-03T17:42:03.190Z,20.80
2023-01-03T17:44:32.691Z,20.70
2023-01-03T17:52:24.306Z,20.50
2023-01-03T17:54:53.157Z,20.90
2023-01-03T18:02:22.621Z,20.10
2023-01-03T18:05:15.054Z,20.30
2023-01-03T18:07:40.002Z,20.20
2023-01-03T18:10:09.648Z,20.30
2023-01-03T18:12:37.723Z,20.50
2023-01-03T18:15:15.494Z,19.90
2023-01-03T18:17:43.578Z,20.20
2023-01-03T18:20:14.633Z,19.60
2023-01-03T18:22:43.285Z,20.30
2023-01-03T18:25:22.099Z,20.30
2023-01-03T18:27:54.813Z,20.30
2023-01-03T18:30:24.543Z,20.20
2023-01-03T18:35:28.413Z,20.30
2023-01-03T18:43:10.426Z,20.20
2023-01-03T18:45:41.251Z,20.70
2023-01-03T18:48:14.734Z,20.20
2023-01-03T18:53:17.066Z,20.30
2023-01-03T18:58:25.297Z,20.80
2023-01-03T19:00:54.952Z,20.50
2023-01-03T19:03:25.250Z,20.50
2023-01-03T19:05:55.516Z,19.70
2023-01-03T19:10:54.303Z,20.10
2023-01-03T19:13:29.372Z,20.20
2023-01-03T19:15:59.230Z,20.50
2023-01-03T19:18:27.937Z,20.80
2023-01-03T19:23:27.614Z,19.80
2023-01-03T19:25:57.069Z,20.10
2023-01-03T19:28:28.988Z,20.40
2023-01-03T19:30:59.082Z,20.40
2023-01-03T19:38:28.199Z,19.60
2023-01-03T19:48:26.434Z,19.60
2023-01-03T19:58:25.229Z,19.80
2023-01-03T20:03:30.289Z,19.90
2023-01-03T20:05:59.845Z,19.60
2023-01-03T20:08:28.581Z,19.70
2023-01-03T20:13:26.766Z,19.90
2023-01-03T20:16:00.514Z,19.10
2023-01-03T20:18:32.287Z,20.10
2023-01-03T20:23:34.696Z,20.20
2023-01-03T20:26:03.047Z,20.60
2023-01-03T20:28:31.290Z,21.00
2023-01-03T20:33:30.832Z,20.80
2023-01-03T20:36:12.588Z,20.40
2023-01-03T20:38:45.888Z,19.90
2023-01-03T20:46:18.476Z,19.90
2023-01-03T20:48:56.132Z,20.20
2023-01-03T20:51:26.328Z,19.90
2023-01-03T20:53:58.503Z,19.90
2023-01-03T20:56:27.468Z,19.60
2023-01-03T20:58:55.600Z,20.40
2023-01-03T21:01:23.785Z,20.00
2023-01-03T21:03:55.978Z,19.90
2023-01-03T21:06:26.894Z,20.30
2023-01-03T21:13:53.330Z,19.90
2023-01-03T21:16:30.299Z,19.80
2023-01-03T21:19:02.869Z,20.40
2023-01-03T21:21:32.493Z,19.70
2023-01-03T21:24:01.681Z,19.60
2023-01-03T21:31:27.875Z,19.60
2023-01-03T21:36:27.977Z,19.60
2023-01-03T21:38:58.077Z,18.90
2023-01-03T21:41:28.679Z,19.20
2023-01-03T21:46:26.876Z,19.30
2023-01-03T21:48:56.016Z,19.20
2023-01-03T21:51:39.931Z,19.30
2023-01-03T21:54:08.823Z,19.30
2023-01-03T21:56:46.044Z,19.70
2023-01-03T22:02:01.753Z,19.50
2023-01-03T22:07:01.944Z,19.30
2023-01-03T22:09:54.315Z,19.00
2023-01-03T22:14:51.929Z,19.50
2023-01-03T22:17:20.525Z,18.60
2023-01-03T22:22:18.784Z,18.90
2023-01-03T22:24:46.977Z,18.80
2023-01-03T22:42:07.047Z,18.70
2023-01-03T22:47:05.303Z,18.80
2023-01-03T22:49:33.473Z,18.80
2023-01-03T22:56:59.877Z,18.60
2023-01-03T23:06:55.252Z,19.00
2023-01-03T23:09:24.067Z,18.90
2023-01-03T23:14:39.725Z,18.80
2023-01-03T23:17:25.368Z,18.80
2023-01-03T23:27:18.643Z,18.50
2023-01-03T23:29:48.093Z,18.50
2023-01-03T23:32:16.682Z,17.70
2023-01-03T23:42:11.151Z,18.30
2023-01-03T23:47:12.083Z,18.30
2023-01-03T23:52:10.061Z,18.80
